Time;durP1;ratioP1;P1;durP2;ratioP2;P2;SDS_P1;SDS_P2;PMS_P1;PMS_P2;Temp;Humidity;BMP_temperature;BMP_pressure;BME280_temperature;BME280_humidity;BME280_pressure;Samples;Min_cycle;Max_cycle;Signal;HPM_P1;HPM_P2
2022/11/17 00:00:24;;;;;;;28.52;13.13;;;;;;;7.17;100.00;96945.09;2599293;28;20384;-82
2022/11/17 00:01:51;;;;;;;26.52;13.25;;;;;;;7.26;100.00;96946.50;2601154;28;20061;-81
2022/11/17 00:03:12;;;;;;;29.60;13.27;;;;;;;7.33;100.00;96952.31;2600081;28;20659;-80
2022/11/17 00:04:30;;;;;;;22.90;12.57;;;;;;;7.39;100.00;96940.81;2599845;28;20194;-82
2022/11/17 00:05:45;;;;;;;25.63;13.68;;;;;;;7.31;100.00;96944.56;2599930;28;20552;-81
2022/11/17 00:07:01;;;;;;;26.40;13.32;;;;;;;7.27;100.00;96934.34;2601852;28;20057;-82
2022/11/17 00:08:17;;;;;;;27.00;13.50;;;;;;;7.16;100.00;96935.59;2599606;28;20049;-82
2022/11/17 00:09:32;;;;;;;28.95;14.55;;;;;;;7.11;100.00;96931.47;2599030;28;20073;-81
2022/11/17 00:10:48;;;;;;;30.58;14.43;;;;;;;7.03;100.00;96927.41;2601175;28;20044;-83
2022/11/17 00:15:12;;;;;;;35.33;15.15;;;;;;;6.46;100.00;96913.91;2599152;28;20148;-82
2022/11/17 00:16:28;;;;;;;32.75;15.40;;;;;;;6.46;100.00;96912.16;2601144;28;20048;-81
2022/11/17 00:17:46;;;;;;;28.38;14.45;;;;;;;6.33;100.00;96914.34;2602050;28;20053;-82
2022/11/17 00:22:14;;;;;;;30.35;14.40;;;;;;;6.29;100.00;96904.97;2600093;28;20053;-86
2022/11/17 00:23:45;;;;;;;35.47;15.98;;;;;;;6.17;100.00;96898.44;2601113;28;20659;-82
2022/11/17 00:25:01;;;;;;;34.90;16.05;;;;;;;6.40;100.00;96901.13;2601155;28;20091;-84
2022/11/17 00:26:18;;;;;;;38.05;16.55;;;;;;;6.48;100.00;96893.91;2599047;28;20053;-80
2022/11/17 00:27:33;;;;;;;33.17;16.20;;;;;;;6.79;100.00;96897.97;2600737;28;20067;-81
2022/11/17 00:28:57;;;;;;;35.15;16.75;;;;;;;6.92;100.00;96899.19;2600236;28;20392;-81
2022/11/17 00:34:03;;;;;;;37.90;17.17;;;;;;;7.07;100.00;96894.31;2598906;28;20072;-82
2022/11/17 00:34:57;;;;;;;35.90;13.23;;;;;;;7.29;100.00;96896.91;2600772;28;20139;-81
2022/11/17 00:36:13;;;;;;;27.85;12.98;;;;;;;7.32;100.00;96898.56;2601398;28;20045;-82
2022/11/17 00:37:34;;;;;;;27.65;13.48;;;;;;;7.33;100.00;96898.50;2600108;28;20060;-81
2022/11/17 00:38:49;;;;;;;26.63;12.98;;;;;;;7.37;100.00;96906.19;2600387;28;20149;-85
2022/11/17 00:40:06;;;;;;;26.85;12.65;;;;;;;7.40;100.00;96898.25;2600534;28;20576;-82
2022/11/17 00:41:21;;;;;;;25.83;13.02;;;;;;;7.44;100.00;96895.47;2600333;28;20053;-81
2022/11/17 00:42:37;;;;;;;22.35;12.13;;;;;;;7.45;100.00;96896.28;2599324;28;20045;-81
2022/11/17 00:43:52;;;;;;;24.23;12.77;;;;;;;7.48;100.00;96899.63;2599974;28;20045;-81
2022/11/17 00:45:08;;;;;;;26.98;12.40;;;;;;;7.48;100.00;96894.41;2599789;28;20102;-83
2022/11/17 00:46:24;;;;;;;24.38;12.90;;;;;;;7.50;100.00;96894.38;2600491;28;20435;-83
2022/11/17 00:47:41;;;;;;;29.05;13.85;;;;;;;7.49;100.00;96895.28;2600887;28;20053;-82
2022/11/17 00:48:57;;;;;;;23.13;12.88;;;;;;;7.50;100.00;96889.16;2601075;28;20863;-81
2022/11/17 00:50:13;;;;;;;28.33;15.70;;;;;;;7.51;100.00;96895.19;2600614;28;20053;-82
2022/11/17 00:51:29;;;;;;;28.85;14.60;;;;;;;7.29;100.00;96889.09;2600862;28;20091;-83
2022/11/17 00:52:44;;;;;;;31.25;14.10;;;;;;;7.35;100.00;96894.09;2600310;28;20518;-81
2022/11/17 00:54:00;;;;;;;23.80;13.35;;;;;;;7.18;100.00;96894.75;2601705;28;20048;-81
2022/11/17 00:55:16;;;;;;;24.95;13.55;;;;;;;7.30;100.00;96892.56;2602113;28;20072;-81
2022/11/17 00:56:32;;;;;;;29.35;13.90;;;;;;;7.25;100.00;96897.09;2601463;28;20060;-84
2022/11/17 00:57:48;;;;;;;28.35;14.70;;;;;;;7.12;100.00;96894.13;2599167;28;20110;-82
2022/11/17 00:59:03;;;;;;;25.35;13.43;;;;;;;7.00;100.00;96892.88;2599684;28;20845;-81
2022/11/17 01:00:20;;;;;;;26.30;12.90;;;;;;;7.11;100.00;96901.06;2600101;28;20138;-82
2022/11/17 01:01:36;;;;;;;31.30;13.65;;;;;;;7.23;100.00;96894.56;2600842;28;20580;-82
2022/11/17 01:02:52;;;;;;;23.52;13.23;;;;;;;7.35;100.00;96895.81;2600715;28;20900;-81
2022/11/17 01:04:07;;;;;;;24.25;12.98;;;;;;;7.41;100.00;96893.00;2600809;28;20053;-83
2022/11/17 01:05:23;;;;;;;26.25;13.52;;;;;;;7.45;100.00;96902.38;2601716;28;20611;-81
2022/11/17 01:06:42;;;;;;;25.15;13.43;;;;;;;7.46;100.00;96898.84;2599811;28;20102;-81
2022/11/17 01:07:58;;;;;;;23.60;12.07;;;;;;;7.54;100.00;96901.13;2601258;28;20484;-81
2022/11/17 01:09:15;;;;;;;23.67;11.85;;;;;;;7.56;100.00;96898.47;2599419;28;20468;-82
2022/11/17 01:10:34;;;;;;;22.70;12.68;;;;;;;7.60;100.00;96897.44;2599680;28;20053;-81
2022/11/17 01:11:51;;;;;;;22.70;12.32;;;;;;;7.59;100.00;96903.56;2601769;28;20071;-82
2022/11/17 01:13:07;;;;;;;24.77;12.82;;;;;;;7.62;100.00;96900.81;2601043;28;20399;-81
2022/11/17 01:14:27;;;;;;;21.48;11.25;;;;;;;7.64;100.00;96904.22;2600160;28;20045;-83
2022/11/17 01:15:42;;;;;;;23.48;11.52;;;;;;;7.53;100.00;96904.66;2599728;28;20077;-82
2022/11/17 01:16:58;;;;;;;20.52;10.95;;;;;;;7.61;100.00;96905.19;2598920;28;20060;-82
2022/11/17 01:18:14;;;;;;;19.65;11.00;;;;;;;7.66;100.00;96898.94;2598788;28;20045;-81
2022/11/17 01:19:29;;;;;;;20.33;11.15;;;;;;;7.62;100.00;96896.47;2604812;28;20404;-81
2022/11/17 01:20:45;;;;;;;24.40;11.75;;;;;;;7.57;100.00;96894.97;2602609;28;20152;-82
2022/11/17 01:22:00;;;;;;;23.92;12.18;;;;;;;7.32;100.00;96898.56;2599645;28;20045;-81
2022/11/17 01:23:16;;;;;;;24.38;12.75;;;;;;;6.85;100.00;96897.75;2600104;28;20403;-81
2022/11/17 01:24:31;;;;;;;24.55;13.10;;;;;;;6.46;100.00;96893.13;2599571;28;20049;-81
2022/11/17 01:25:47;;;;;;;25.73;13.05;;;;;;;6.55;100.00;96903.16;2600112;28;20079;-83
2022/11/17 01:27:03;;;;;;;29.95;13.32;;;;;;;6.57;100.00;96906.59;2600024;28;20065;-82
2022/11/17 01:28:18;;;;;;;29.50;13.50;;;;;;;6.76;100.00;96911.09;2599999;28;20613;-81
2022/11/17 01:29:34;;;;;;;29.05;13.82;;;;;;;6.69;100.00;96907.00;2599225;28;20053;-81
2022/11/17 01:30:50;;;;;;;29.23;13.88;;;;;;;6.45;100.00;96902.66;2602962;28;20052;-81
2022/11/17 01:32:05;;;;;;;29.30;14.15;;;;;;;6.49;100.00;96906.00;2601013;28;20061;-81
2022/11/17 01:33:21;;;;;;;33.75;15.23;;;;;;;6.47;100.00;96900.00;2602536;28;20505;-81
2022/11/17 01:34:36;;;;;;;32.67;14.60;;;;;;;6.74;100.00;96897.31;2611426;28;20056;-82
2022/11/17 01:35:52;;;;;;;32.05;14.35;;;;;;;7.15;100.00;96889.66;2607190;28;20056;-81
2022/11/17 01:37:19;;;;;;;29.40;14.02;;;;;;;7.23;100.00;96885.91;2603487;28;20049;-80
2022/11/17 01:38:35;;;;;;;26.45;12.88;;;;;;;7.16;100.00;96880.94;2600656;28;20045;-80
2022/11/17 01:39:50;;;;;;;27.05;13.80;;;;;;;7.23;100.00;96878.09;2601405;28;20045;-81
2022/11/17 01:41:12;;;;;;;30.27;13.05;;;;;;;7.32;100.00;96880.31;2604139;28;20053;-81
2022/11/17 01:42:28;;;;;;;24.58;13.23;;;;;;;7.43;100.00;96874.69;2601433;28;20053;-80
2022/11/17 01:43:52;;;;;;;24.75;12.43;;;;;;;7.43;100.00;96872.06;2603525;28;20064;-81
2022/11/17 01:45:23;;;;;;;23.48;12.10;;;;;;;7.42;100.00;96871.25;2600631;28;20056;-81
2022/11/17 01:46:40;;;;;;;22.33;12.13;;;;;;;7.43;100.00;96875.53;2602671;28;20131;-82
2022/11/17 01:48:01;;;;;;;27.60;12.68;;;;;;;7.39;100.00;96879.16;2602993;28;20381;-82
2022/11/17 01:49:21;;;;;;;22.95;11.30;;;;;;;7.39;100.00;96871.34;2600789;28;20048;-82
2022/11/17 01:50:41;;;;;;;20.95;11.43;;;;;;;7.51;100.00;96882.19;2602164;28;20635;-85
2022/11/17 01:52:05;;;;;;;28.83;12.93;;;;;;;7.46;100.00;96874.56;2602591;28;20095;-83
2022/11/17 01:53:22;;;;;;;25.00;11.48;;;;;;;7.41;100.00;96873.91;2601229;28;20049;-82
2022/11/17 01:54:41;;;;;;;23.67;12.15;;;;;;;7.40;100.00;96872.22;2602200;28;20546;-82
2022/11/17 01:56:02;;;;;;;26.83;12.07;;;;;;;7.38;100.00;96882.66;2602440;28;20479;-84
2022/11/17 01:57:26;;;;;;;28.58;11.43;;;;;;;7.42;100.00;96867.78;2600045;28;20144;-83
2022/11/17 01:58:49;;;;;;;18.75;10.77;;;;;;;7.47;100.00;96873.63;2601571;28;20107;-81
2022/11/17 02:00:07;;;;;;;26.70;11.35;;;;;;;7.47;100.00;96868.44;2603300;28;20488;-82
2022/11/17 02:01:22;;;;;;;26.48;12.18;;;;;;;7.43;100.00;96865.13;2601445;28;20535;-81
2022/11/17 02:02:40;;;;;;;22.50;11.38;;;;;;;7.41;100.00;96863.47;2601706;28;20116;-82
2022/11/17 02:03:56;;;;;;;20.95;10.88;;;;;;;7.38;100.00;96864.44;2600444;28;20049;-82
2022/11/17 02:05:15;;;;;;;22.00;11.15;;;;;;;7.49;100.00;96854.44;2602356;28;20073;-81
2022/11/17 02:06:34;;;;;;;19.35;10.60;;;;;;;7.46;100.00;96856.31;2603691;28;20045;-82
2022/11/17 02:07:53;;;;;;;17.95;10.45;;;;;;;7.14;100.00;96859.34;2602324;28;20695;-82
2022/11/17 02:09:09;;;;;;;19.70;10.57;;;;;;;7.08;100.00;96862.16;2601463;28;20107;-82
2022/11/17 02:10:29;;;;;;;21.02;10.63;;;;;;;6.95;100.00;96859.22;2601341;28;20050;-84
2022/11/17 02:11:44;;;;;;;23.33;11.00;;;;;;;7.16;100.00;96857.53;2603075;28;20130;-81
2022/11/17 02:13:01;;;;;;;23.13;11.15;;;;;;;7.05;100.00;96859.69;2600891;28;20099;-81
2022/11/17 02:14:16;;;;;;;19.85;11.07;;;;;;;7.04;100.00;96868.41;2602453;28;20045;-82
2022/11/17 02:15:32;;;;;;;24.02;10.75;;;;;;;7.17;100.00;96864.41;2602472;28;20053;-82
2022/11/17 02:16:47;;;;;;;20.48;10.13;;;;;;;7.26;100.00;96864.94;2600970;28;20065;-83
2022/11/17 02:18:03;;;;;;;18.08;9.55;;;;;;;7.34;100.00;96861.16;2602142;28;20052;-82
2022/11/17 02:19:23;;;;;;;22.92;11.48;;;;;;;7.38;100.00;96867.06;2600383;28;20397;-82
2022/11/17 02:20:56;;;;;;;19.75;9.98;;;;;;;7.37;100.00;96860.16;2601123;28;20049;-82
2022/11/17 02:22:46;;;;;;;19.58;9.60;;;;;;;7.38;100.00;96855.81;2600634;28;20135;-83
2022/11/17 02:24:24;;;;;;;22.50;9.82;;;;;;;7.37;100.00;96861.94;2602560;28;20098;-82
2022/11/17 02:26:12;;;;;;;19.17;9.40;;;;;;;7.03;100.00;96861.50;2602108;28;20076;-82
2022/11/17 02:27:30;;;;;;;20.98;9.95;;;;;;;7.21;100.00;96863.38;2601658;28;20126;-81
2022/11/17 02:29:07;;;;;;;18.90;10.18;;;;;;;7.23;100.00;96857.25;2601248;28;20066;-82
2022/11/17 02:30:23;;;;;;;18.20;9.32;;;;;;;6.95;100.00;96868.75;2601329;28;20045;-81
2022/11/17 02:31:47;;;;;;;19.30;9.43;;;;;;;6.91;100.00;96868.88;2601579;28;20057;-82
2022/11/17 02:33:21;;;;;;;21.67;10.57;;;;;;;7.08;100.00;96867.38;2602459;28;20049;-81
2022/11/17 02:34:57;;;;;;;21.40;9.75;;;;;;;7.16;100.00;96859.25;2601417;28;20049;-84
2022/11/17 02:36:35;;;;;;;20.73;10.43;;;;;;;7.04;100.00;96856.22;2602092;28;20096;-81
2022/11/17 02:38:06;;;;;;;19.58;9.85;;;;;;;7.00;100.00;96857.28;2601923;28;20118;-83
2022/11/17 02:39:28;;;;;;;19.92;10.23;;;;;;;6.64;100.00;96861.22;2602763;28;20614;-83
2022/11/17 02:40:49;;;;;;;26.10;10.68;;;;;;;6.62;100.00;96863.03;2603044;28;20144;-87
2022/11/17 02:42:13;;;;;;;25.80;11.70;;;;;;;6.65;100.00;96859.50;2600939;28;20411;-81
2022/11/17 02:45:25;;;;;;;29.17;12.50;;;;;;;6.37;100.00;96857.91;2601645;28;20057;-81
2022/11/17 02:46:40;;;;;;;29.10;11.88;;;;;;;6.36;100.00;96862.25;2601444;28;20296;-83
2022/11/17 02:47:59;;;;;;;28.48;12.35;;;;;;;6.36;100.00;96862.25;2601135;28;20049;-83
2022/11/17 02:49:36;;;;;;;30.17;10.93;;;;;;;6.29;100.00;96863.41;2601262;28;20103;-82
2022/11/17 02:50:53;;;;;;;24.52;11.43;;;;;;;6.34;100.00;96865.81;2600272;28;20455;-82
2022/11/17 02:52:09;;;;;;;29.50;12.98;;;;;;;6.53;100.00;96863.38;2600395;28;20083;-86
2022/11/17 02:53:27;;;;;;;27.75;12.55;;;;;;;6.67;100.00;96875.00;2601095;28;20100;-83
2022/11/17 02:54:43;;;;;;;29.30;12.98;;;;;;;6.97;100.00;96867.81;2600577;28;20045;-83
2022/11/17 02:56:00;;;;;;;28.63;12.07;;;;;;;7.00;100.00;96872.03;2599947;28;20045;-83
2022/11/17 02:57:31;;;;;;;25.20;11.95;;;;;;;7.04;100.00;96873.63;2600518;28;20049;-82
2022/11/17 02:58:51;;;;;;;23.70;10.73;;;;;;;7.03;100.00;96874.53;2601764;28;20567;-83
2022/11/17 03:00:09;;;;;;;23.52;10.73;;;;;;;7.13;100.00;96865.47;2600339;28;20049;-82
2022/11/17 03:01:25;;;;;;;22.73;10.25;;;;;;;7.26;100.00;96863.19;2601658;28;20491;-82
2022/11/17 03:02:52;;;;;;;22.85;10.50;;;;;;;7.28;100.00;96861.38;2600102;28;20159;-85
2022/11/17 03:04:08;;;;;;;24.25;11.15;;;;;;;7.36;100.00;96853.25;2601374;28;20076;-82
2022/11/17 03:05:45;;;;;;;19.20;9.82;;;;;;;7.35;100.00;96857.63;2602270;28;20045;-82
2022/11/17 03:07:19;;;;;;;20.98;9.57;;;;;;;7.28;100.00;96850.13;2602353;28;20472;-82
2022/11/17 03:08:54;;;;;;;22.33;10.35;;;;;;;7.17;100.00;96854.00;2602170;28;20052;-82
2022/11/17 03:10:22;;;;;;;18.10;9.73;;;;;;;7.32;100.00;96849.09;2599655;28;20175;-82
2022/11/17 03:11:47;;;;;;;22.00;10.40;;;;;;;7.33;100.00;96848.19;2601197;28;20045;-83
2022/11/17 03:13:39;;;;;;;22.65;10.60;;;;;;;7.37;100.00;96849.75;2601623;28;20069;-83
2022/11/17 03:15:47;;;;;;;18.13;9.38;;;;;;;7.27;100.00;96854.47;2598814;28;20050;-82
2022/11/17 03:17:11;;;;;;;23.42;10.40;;;;;;;6.96;100.00;96854.84;2573196;28;20483;-82
2022/11/17 03:18:45;;;;;;;20.25;10.85;;;;;;;7.13;100.00;96855.03;2600471;28;20099;-83
2022/11/17 03:20:17;;;;;;;20.00;10.40;;;;;;;7.15;100.00;96855.81;2600494;28;20104;-83
2022/11/17 03:21:57;;;;;;;24.50;11.10;;;;;;;7.34;100.00;96855.06;2601858;28;20060;-82
2022/11/17 03:23:19;;;;;;;21.67;10.73;;;;;;;7.15;100.00;96860.16;2600335;28;20333;-84
2022/11/17 03:24:43;;;;;;;24.75;11.65;;;;;;;7.07;100.00;96863.06;2601686;28;20119;-84
2022/11/17 03:26:01;;;;;;;23.25;10.93;;;;;;;6.97;100.00;96859.13;2603038;28;20419;-82
2022/11/17 03:27:22;;;;;;;24.52;12.07;;;;;;;7.04;100.00;96871.00;2601355;28;20076;-83
2022/11/17 03:28:41;;;;;;;25.93;12.17;;;;;;;7.24;100.00;96866.75;2600207;28;20076;-83
2022/11/17 03:30:04;;;;;;;24.52;12.10;;;;;;;7.10;100.00;96859.53;2602396;28;20565;-83
2022/11/17 03:31:21;;;;;;;25.95;12.30;;;;;;;7.44;100.00;96860.75;2601593;28;20411;-82
2022/11/17 03:32:39;;;;;;;31.10;14.02;;;;;;;7.31;100.00;96855.22;2600734;28;20054;-84
2022/11/17 03:33:56;;;;;;;28.45;13.05;;;;;;;7.39;100.00;96852.28;2602354;28;20079;-82
2022/11/17 03:35:18;;;;;;;31.30;14.88;;;;;;;7.35;100.00;96852.41;2601819;28;20582;-82
2022/11/17 03:36:42;;;;;;;32.35;15.43;;;;;;;7.13;100.00;96852.44;2599947;28;20060;-82
2022/11/17 03:38:05;;;;;;;36.05;14.65;;;;;;;7.30;100.00;96848.31;2600913;28;20049;-84
2022/11/17 03:39:51;;;;;;;29.63;13.73;;;;;;;7.42;100.00;96844.34;2599861;28;20052;-82
2022/11/17 03:41:11;;;;;;;24.88;12.82;;;;;;;7.51;100.00;96850.94;2600165;28;20199;-83
2022/11/17 03:42:30;;;;;;;25.70;13.18;;;;;;;7.51;100.00;96849.19;2599620;28;20134;-86
2022/11/17 03:43:48;;;;;;;26.17;12.65;;;;;;;7.44;100.00;96850.34;2599980;28;20102;-83
2022/11/17 03:45:16;;;;;;;24.00;12.93;;;;;;;7.29;100.00;96847.44;2601822;28;20596;-83
2022/11/17 03:46:35;;;;;;;24.25;12.38;;;;;;;7.15;100.00;96850.63;2600995;28;20064;-82
2022/11/17 03:48:07;;;;;;;25.10;12.05;;;;;;;7.24;100.00;96852.00;2601144;28;21081;-84
2022/11/17 03:49:40;;;;;;;22.63;11.13;;;;;;;7.19;100.00;96854.78;2599459;28;20112;-83
2022/11/17 03:51:11;;;;;;;23.05;11.50;;;;;;;7.43;100.00;96853.84;2600014;28;20164;-82
2022/11/17 03:52:28;;;;;;;26.48;13.25;;;;;;;7.43;100.00;96853.84;2602634;28;20462;-82
2022/11/17 03:53:45;;;;;;;25.42;12.07;;;;;;;7.58;100.00;96865.41;2600647;28;20067;-86
2022/11/17 03:55:01;;;;;;;25.05;11.85;;;;;;;7.49;100.00;96861.44;2599411;28;20046;-80
2022/11/17 03:56:35;;;;;;;24.15;12.15;;;;;;;7.47;100.00;96863.22;2599863;28;20063;-84
2022/11/17 03:57:55;;;;;;;25.88;11.32;;;;;;;7.34;100.00;96860.28;2600263;28;20104;-82
2022/11/17 03:59:20;;;;;;;25.27;11.93;;;;;;;7.32;100.00;96856.91;2601125;28;20094;-83
2022/11/17 04:00:39;;;;;;;25.05;11.77;;;;;;;7.26;100.00;96862.34;2600894;28;20083;-81
2022/11/17 04:01:55;;;;;;;27.48;12.30;;;;;;;7.32;100.00;96854.28;2601178;28;20088;-81
2022/11/17 04:03:11;;;;;;;24.98;11.90;;;;;;;7.35;100.00;96857.63;2601636;28;20049;-84
2022/11/17 04:05:04;;;;;;;28.05;12.88;;;;;;;7.36;100.00;96848.03;2601477;28;20491;-81
2022/11/17 04:06:01;;;;;;;29.85;12.90;;;;;;;7.34;100.00;96861.16;2599410;28;20377;-81
2022/11/17 04:07:17;;;;;;;26.95;14.07;;;;;;;7.40;100.00;96851.38;2599602;28;20054;-81
2022/11/17 04:08:33;;;;;;;23.60;12.60;;;;;;;7.52;100.00;96850.00;2600052;28;20064;-82
2022/11/17 04:09:48;;;;;;;27.02;13.93;;;;;;;7.49;100.00;96856.22;2599957;28;20053;-81
2022/11/17 04:15:55;;;;;;;28.35;13.57;;;;;;;7.67;100.00;96851.97;2599403;28;20046;-81
2022/11/17 04:17:11;;;;;;;23.77;12.18;;;;;;;7.71;100.00;96847.50;2602275;28;20049;-81
2022/11/17 04:18:26;;;;;;;25.25;13.70;;;;;;;7.71;100.00;96850.97;2601416;28;20049;-82
2022/11/17 04:19:42;;;;;;;24.20;12.93;;;;;;;7.78;100.00;96846.34;2600383;28;20461;-82
2022/11/17 04:20:58;;;;;;;26.42;12.93;;;;;;;7.45;100.00;96850.28;2601648;28;20055;-81
2022/11/17 04:22:13;;;;;;;26.67;12.95;;;;;;;7.29;100.00;96844.00;2600750;28;20060;-81
2022/11/17 04:23:29;;;;;;;29.65;14.02;;;;;;;7.32;100.00;96842.09;2601022;28;20098;-82
2022/11/17 04:24:45;;;;;;;32.08;14.18;;;;;;;7.38;100.00;96846.22;2602010;28;20499;-80
2022/11/17 04:29:09;;;;;;;30.20;13.93;;;;;;;7.57;100.00;96841.09;2601891;28;20059;-83
2022/11/17 04:30:25;;;;;;;31.92;15.32;;;;;;;7.63;100.00;96838.25;2600022;28;20071;-83
2022/11/17 04:31:40;;;;;;;40.45;15.68;;;;;;;7.68;100.00;96842.41;2601058;28;20053;-80
2022/11/17 04:32:56;;;;;;;41.92;15.60;;;;;;;7.70;100.00;96845.81;2601561;28;20054;-82
2022/11/17 04:34:11;;;;;;;34.83;15.27;;;;;;;7.59;100.00;96844.50;2599694;28;20057;-85
2022/11/17 04:35:29;;;;;;;33.35;14.88;;;;;;;7.62;100.00;96849.59;2600962;28;20052;-81
2022/11/17 04:36:45;;;;;;;33.83;14.48;;;;;;;7.70;100.00;96849.28;2602325;28;20060;-81
2022/11/17 04:38:00;;;;;;;34.47;13.85;;;;;;;7.60;100.00;96845.34;2600785;28;20408;-83
2022/11/17 04:39:17;;;;;;;31.92;12.90;;;;;;;7.69;100.00;96850.19;2601943;28;20056;-82
2022/11/17 04:41:52;;;;;;;31.30;12.15;;;;;;;7.72;100.00;96846.59;2599258;28;20049;-82
2022/11/17 04:42:08;;;;;;;32.75;12.95;;;;;;;7.72;100.00;96847.44;2600454;28;20140;-82
2022/11/17 04:43:23;;;;;;;33.20;11.68;;;;;;;7.73;100.00;96845.66;2600581;28;20519;-82
2022/11/17 04:44:39;;;;;;;28.58;11.80;;;;;;;7.77;100.00;96836.84;2599364;28;20049;-82
2022/11/17 04:45:59;;;;;;;24.70;11.23;;;;;;;7.71;100.00;96840.53;2601210;28;20058;-83
2022/11/17 04:47:14;;;;;;;28.23;10.95;;;;;;;7.77;100.00;96840.25;2601231;28;20049;-85
2022/11/17 04:48:30;;;;;;;28.42;11.40;;;;;;;7.80;100.00;96831.47;2599831;28;20641;-86
2022/11/17 04:49:45;;;;;;;32.40;11.57;;;;;;;7.81;100.00;96833.19;2602073;28;20089;-83
2022/11/17 04:51:01;;;;;;;28.55;12.85;;;;;;;7.79;100.00;96832.41;2602031;28;20064;-82
2022/11/17 04:52:17;;;;;;;27.85;11.02;;;;;;;7.87;100.00;96832.06;2598702;28;20056;-82
2022/11/17 04:53:32;;;;;;;25.98;10.68;;;;;;;7.86;100.00;96828.59;2601891;28;20072;-81
2022/11/17 04:54:47;;;;;;;25.27;10.13;;;;;;;7.86;100.00;96830.38;2601190;28;20046;-82
2022/11/17 04:56:04;;;;;;;31.63;11.40;;;;;;;7.87;100.00;96824.25;2601583;28;20069;-82
2022/11/17 04:57:19;;;;;;;29.38;11.43;;;;;;;7.85;100.00;96828.69;2600896;28;20053;-83
2022/11/17 04:58:35;;;;;;;26.70;10.82;;;;;;;7.87;100.00;96832.06;2598994;28;21013;-82
2022/11/17 04:59:51;;;;;;;29.83;10.93;;;;;;;7.74;100.00;96831.72;2601822;28;20068;-83
2022/11/17 05:01:15;;;;;;;27.48;10.60;;;;;;;7.76;100.00;96828.16;2600835;28;20104;-80
2022/11/17 05:02:30;;;;;;;22.88;9.88;;;;;;;7.74;100.00;96824.78;2600426;28;20380;-81
2022/11/17 05:03:52;;;;;;;25.13;11.00;;;;;;;7.76;100.00;96820.34;2599492;28;20361;-83
2022/11/17 05:05:08;;;;;;;23.83;9.48;;;;;;;7.63;100.00;96830.44;2601704;28;20487;-81
2022/11/17 05:06:32;;;;;;;25.83;10.63;;;;;;;7.39;100.00;96823.66;2601026;28;20667;-82
2022/11/17 05:07:47;;;;;;;26.52;10.75;;;;;;;7.16;100.00;96826.28;2603453;28;20126;-85
2022/11/17 05:09:09;;;;;;;28.88;11.75;;;;;;;6.97;100.00;96828.78;2602473;28;20053;-81
2022/11/17 05:13:33;;;;;;;32.35;12.20;;;;;;;7.37;100.00;96815.88;2601035;28;20053;-82
2022/11/17 05:14:49;;;;;;;30.83;12.73;;;;;;;7.49;100.00;96818.00;2601037;28;20052;-83
2022/11/17 05:17:39;;;;;;;26.95;11.05;;;;;;;7.65;100.00;96813.91;2601584;28;20126;-86
2022/11/17 05:18:54;;;;;;;27.70;11.27;;;;;;;7.68;100.00;96812.00;2602924;28;20485;-81
2022/11/17 05:20:10;;;;;;;26.42;11.38;;;;;;;7.60;100.00;96814.09;2603077;28;20396;-81
2022/11/17 05:21:25;;;;;;;22.48;10.27;;;;;;;7.64;100.00;96805.22;2600753;28;20449;-88
2022/11/17 05:24:16;;;;;;;26.83;10.63;;;;;;;7.59;100.00;96796.78;2600614;28;20057;-80
2022/11/17 05:25:32;;;;;;;28.80;10.95;;;;;;;7.70;100.00;96797.16;2602873;28;20084;-81
2022/11/17 05:26:49;;;;;;;28.95;11.77;;;;;;;7.65;100.00;96795.66;2601261;28;20059;-81
2022/11/17 05:28:05;;;;;;;32.22;12.57;;;;;;;7.44;100.00;96793.91;2601398;28;20120;-81
2022/11/17 05:29:21;;;;;;;43.72;15.90;;;;;;;7.54;100.00;96796.09;2602069;28;20053;-81
2022/11/17 05:30:37;;;;;;;47.75;16.83;;;;;;;7.41;100.00;96799.25;2602402;28;20502;-86
2022/11/17 05:31:52;;;;;;;43.08;16.63;;;;;;;7.52;100.00;96803.16;2602784;28;20073;-80
2022/11/17 05:33:08;;;;;;;37.70;13.50;;;;;;;7.52;100.00;96798.78;2601043;28;20122;-82
2022/11/17 05:34:23;;;;;;;34.65;12.10;;;;;;;7.56;100.00;96796.91;2601237;28;20053;-81
2022/11/17 05:35:39;;;;;;;31.05;11.63;;;;;;;7.40;100.00;96796.69;2600769;28;20049;-81
2022/11/17 05:36:54;;;;;;;30.00;11.02;;;;;;;7.45;100.00;96790.41;2600424;28;20138;-81
2022/11/17 05:38:10;;;;;;;26.08;11.10;;;;;;;7.52;100.00;96790.97;2601717;28;20045;-81
2022/11/17 05:39:26;;;;;;;20.50;8.60;;;;;;;7.38;100.00;96785.50;2612527;28;20064;-83
2022/11/17 05:40:41;;;;;;;20.90;8.98;;;;;;;7.36;100.00;96785.56;2606674;28;20069;-82
2022/11/17 05:41:57;;;;;;;19.55;7.75;;;;;;;7.27;100.00;96786.78;2600759;28;20107;-82
2022/11/17 05:43:13;;;;;;;22.00;8.88;;;;;;;7.50;100.00;96790.22;2603120;28;20389;-84
2022/11/17 05:44:28;;;;;;;18.95;8.15;;;;;;;7.49;100.00;96793.72;2602899;28;20049;-82
2022/11/17 05:45:44;;;;;;;18.48;7.97;;;;;;;7.32;100.00;96791.81;2603029;28;20110;-82
2022/11/17 05:47:00;;;;;;;16.05;7.60;;;;;;;7.40;100.00;96783.69;2603703;28;20076;-82
2022/11/17 05:48:16;;;;;;;15.65;6.68;;;;;;;6.96;100.00;96787.19;2601999;28;20082;-81
2022/11/17 05:49:31;;;;;;;14.95;6.25;;;;;;;7.01;100.00;96791.31;2603288;28;20046;-83
2022/11/17 05:50:47;;;;;;;16.67;7.93;;;;;;;7.23;100.00;96789.59;2601573;28;20041;-82
2022/11/17 05:52:02;;;;;;;16.27;7.25;;;;;;;7.39;100.00;96789.81;2600392;28;20160;-81
2022/11/17 05:53:19;;;;;;;13.00;7.18;;;;;;;7.41;100.00;96788.84;2602761;28;20492;-85
2022/11/17 05:54:34;;;;;;;17.27;7.72;;;;;;;7.49;100.00;96786.75;2601280;28;20053;-82
2022/11/17 05:55:50;;;;;;;15.57;7.80;;;;;;;7.21;100.00;96785.28;2601325;28;20060;-81
2022/11/17 05:57:10;;;;;;;14.77;6.88;;;;;;;7.39;100.00;96787.19;2603143;28;20575;-81
2022/11/17 05:58:32;;;;;;;15.25;7.50;;;;;;;7.37;100.00;96794.22;2601418;28;20057;-82
2022/11/17 05:59:54;;;;;;;18.33;7.43;;;;;;;7.34;100.00;96792.59;2601907;28;20071;-82
2022/11/17 06:01:11;;;;;;;18.27;8.20;;;;;;;7.44;100.00;96788.69;2601476;28;20464;-81
2022/11/17 06:02:36;;;;;;;17.30;7.88;;;;;;;7.50;100.00;96795.41;2601993;28;20077;-85
2022/11/17 06:03:55;;;;;;;12.60;6.30;;;;;;;7.34;100.00;96803.00;2603059;28;20085;-81
2022/11/17 06:05:10;;;;;;;15.85;7.22;;;;;;;7.52;100.00;96811.81;2601802;28;20052;-81
2022/11/17 06:06:27;;;;;;;19.27;6.88;;;;;;;7.52;100.00;96810.94;2600394;28;20454;-82
2022/11/17 06:07:42;;;;;;;12.80;6.10;;;;;;;7.39;100.00;96810.63;2601446;28;20045;-87
2022/11/17 06:08:58;;;;;;;12.70;6.35;;;;;;;7.51;100.00;96810.13;2602413;28;20664;-83
2022/11/17 06:10:14;;;;;;;13.10;6.20;;;;;;;7.31;100.00;96803.97;2601052;28;20599;-83
2022/11/17 06:11:29;;;;;;;13.25;6.60;;;;;;;7.38;100.00;96812.38;2602287;28;20041;-82
2022/11/17 06:12:46;;;;;;;13.57;6.28;;;;;;;7.36;100.00;96814.19;2600883;28;20535;-82
2022/11/17 06:14:01;;;;;;;13.40;6.32;;;;;;;7.51;100.00;96824.88;2601724;28;20390;-79
2022/11/17 06:15:18;;;;;;;11.73;6.05;;;;;;;7.46;100.00;96825.06;2601032;28;20358;-81
2022/11/17 06:16:39;;;;;;;18.73;7.50;;;;;;;7.35;100.00;96822.91;2600702;28;20053;-82
2022/11/17 06:18:06;;;;;;;13.63;5.82;;;;;;;7.44;100.00;96816.47;2601913;28;20056;-84
2022/11/17 06:19:28;;;;;;;12.45;6.47;;;;;;;7.49;100.00;96819.75;2600382;28;20585;-83
2022/11/17 06:20:48;;;;;;;13.27;7.17;;;;;;;7.45;100.00;96819.03;2601216;28;20084;-81
2022/11/17 06:22:04;;;;;;;16.92;6.68;;;;;;;7.07;100.00;96816.25;2600866;28;21196;-83
2022/11/17 06:23:24;;;;;;;17.75;6.60;;;;;;;7.02;100.00;96816.41;2600612;28;20103;-81
2022/11/17 06:24:43;;;;;;;15.23;7.00;;;;;;;7.25;100.00;96825.06;2600920;28;20053;-81
2022/11/17 06:26:02;;;;;;;16.20;7.00;;;;;;;7.29;100.00;96821.41;2600769;28;20045;-82
2022/11/17 06:27:18;;;;;;;14.57;7.20;;;;;;;7.44;100.00;96825.16;2599735;28;20387;-81
2022/11/17 06:28:35;;;;;;;17.10;7.65;;;;;;;7.17;100.00;96825.38;2600788;28;20539;-82
2022/11/17 06:29:51;;;;;;;15.15;7.28;;;;;;;6.70;100.00;96820.28;2601263;28;20160;-83
2022/11/17 06:31:07;;;;;;;17.10;7.30;;;;;;;6.88;100.00;96816.13;2600747;28;20526;-82
2022/11/17 06:32:22;;;;;;;18.30;8.35;;;;;;;6.68;100.00;96824.69;2601407;28;20042;-82